Sonja — V2CR8 — position and weather

sailwx.info

Track history (hours):
 
Tides and Currents Weather Stations Pressure Air Temp Water Temp Dewpoint Dewpoint Depression Visibility Wind Speed Wind Dir Waves Ship Positions

Sonja

Last reported at 2018-Jul-17 03:45 UTC. Time now 2018-Jul-17 04:12 UTC.
Position S 32°55' E 151°46'.

Length 101 m; draft 4.3 m.

Type: Cargo ship. MMSI: 305089000.

Date/timePositionNaut miles runAvg speedWind from/ knotsBaromVisibWave heightAir tempDewpointWater temp
2018-Jul-17 03:45S 32°55' E 151°46'0 1.4
2018-Jul-17 03:30S 32°55' E 151°46'3 5.9
2018-Jul-17 03:00S 32°55' E 151°50'4 7.1
2018-Jul-17 02:30S 32°57' E 151°53'4 7.5
2018-Jul-17 02:00S 32°58' E 151°57'611.3
2018-Jul-17 01:30S 32°57' E 152°04'611.9
2018-Jul-17 01:00S 32°56' E 152°11'612.0
2018-Jul-17 00:30S 32°55' E 152°18'1211.7
2018-Jul-16 23:30S 32°53' E 152°31'4 7.7
2018-Jul-16 23:00S 32°52' E 152°36'1 1.8
2018-Jul-16 22:30S 32°52' E 152°35'1 1.7
2018-Jul-16 22:00S 32°52' E 152°34'1 1.7
2018-Jul-16 21:30S 32°53' E 152°33'1 1.7
2018-Jul-16 21:00S 32°53' E 152°32'1 1.7
2018-Jul-16 20:30S 32°53' E 152°31'1 1.7
2018-Jul-16 20:00S 32°53' E 152°30'1 1.6
2018-Jul-16 19:30S 32°53' E 152°29'1 1.6
2018-Jul-16 19:00S 32°53' E 152°28'1 1.6
2018-Jul-16 18:31S 32°52' E 152°27'1 1.4
2018-Jul-16 18:01S 32°52' E 152°26'1 1.3
2018-Jul-16 17:31S 32°52' E 152°25'1 1.4
2018-Jul-16 17:01S 32°52' E 152°24'1 1.3
2018-Jul-16 16:31S 32°52' E 152°24'1 1.3
2018-Jul-16 16:01S 32°52' E 152°23'1 1.2
2018-Jul-16 15:31S 32°52' E 152°22'0 1.0
2018-Jul-16 15:00S 32°51' E 152°22'1 2.9
2018-Jul-16 14:30S 32°50' E 152°22'612.2
2018-Jul-16 14:00S 32°44' E 152°23'611.9
2018-Jul-16 13:31S 32°40' E 152°28'510.8
2018-Jul-16 13:00S 32°36' E 152°32'612.0
2018-Jul-16 12:30S 32°31' E 152°37'612.1
2018-Jul-16 12:00S 32°26' E 152°41'263 9.2
2018-Jul-15 07:29S 28°09' E 153°43'612.6
2018-Jul-15 07:01S 28°03' E 153°42'612.3
2018-Jul-15 06:30S 27°57' E 153°41'611.8
2018-Jul-15 06:01S 27°51' E 153°41'612.0
2018-Jul-15 05:31S 27°45' E 153°41'812.7
2018-Jul-15 04:54S 27°37' E 153°41'512.8
2018-Jul-15 04:31S 27°32' E 153°40'612.5
2018-Jul-15 04:00S 27°26' E 153°40'  
Track history (hours):
 
Tides and Currents Weather Stations Pressure Air Temp Water Temp Dewpoint Dewpoint Depression Visibility Wind Speed Wind Dir Waves Ship Positions

Sonja

Last reported at 2018-Jul-17 03:45 UTC. Time now 2018-Jul-17 04:12 UTC.
Position S 32°55' E 151°46'.

Length 101 m; draft 4.3 m.

Type: Cargo ship. MMSI: 305089000.

Date/timePositionNaut miles runAvg speedWind from/ knotsBaromVisibWave heightAir tempDewpointWater temp
2018-Jul-17 03:45S 32°55' E 151°46'0 1.4
2018-Jul-17 03:30S 32°55' E 151°46'3 5.9
2018-Jul-17 03:00S 32°55' E 151°50'4 7.1
2018-Jul-17 02:30S 32°57' E 151°53'4 7.5
2018-Jul-17 02:00S 32°58' E 151°57'611.3
2018-Jul-17 01:30S 32°57' E 152°04'611.9
2018-Jul-17 01:00S 32°56' E 152°11'612.0
2018-Jul-17 00:30S 32°55' E 152°18'1211.7
2018-Jul-16 23:30S 32°53' E 152°31'4 7.7
2018-Jul-16 23:00S 32°52' E 152°36'1 1.8
2018-Jul-16 22:30S 32°52' E 152°35'1 1.7
2018-Jul-16 22:00S 32°52' E 152°34'1 1.7
2018-Jul-16 21:30S 32°53' E 152°33'1 1.7
2018-Jul-16 21:00S 32°53' E 152°32'1 1.7
2018-Jul-16 20:30S 32°53' E 152°31'1 1.7
2018-Jul-16 20:00S 32°53' E 152°30'1 1.6
2018-Jul-16 19:30S 32°53' E 152°29'1 1.6
2018-Jul-16 19:00S 32°53' E 152°28'1 1.6
2018-Jul-16 18:31S 32°52' E 152°27'1 1.4
2018-Jul-16 18:01S 32°52' E 152°26'1 1.3
2018-Jul-16 17:31S 32°52' E 152°25'1 1.4
2018-Jul-16 17:01S 32°52' E 152°24'1 1.3
2018-Jul-16 16:31S 32°52' E 152°24'1 1.3
2018-Jul-16 16:01S 32°52' E 152°23'1 1.2
2018-Jul-16 15:31S 32°52' E 152°22'0 1.0
2018-Jul-16 15:00S 32°51' E 152°22'1 2.9
2018-Jul-16 14:30S 32°50' E 152°22'612.2
2018-Jul-16 14:00S 32°44' E 152°23'611.9
2018-Jul-16 13:31S 32°40' E 152°28'510.8
2018-Jul-16 13:00S 32°36' E 152°32'612.0
2018-Jul-16 12:30S 32°31' E 152°37'612.1
2018-Jul-16 12:00S 32°26' E 152°41'263 9.2
2018-Jul-15 07:29S 28°09' E 153°43'612.6
2018-Jul-15 07:01S 28°03' E 153°42'612.3
2018-Jul-15 06:30S 27°57' E 153°41'611.8
2018-Jul-15 06:01S 27°51' E 153°41'612.0
2018-Jul-15 05:31S 27°45' E 153°41'812.7
2018-Jul-15 04:54S 27°37' E 153°41'512.8
2018-Jul-15 04:31S 27°32' E 153°40'612.5
2018-Jul-15 04:00S 27°26' E 153°40'  

Dump ship's entire track history